KCRS/CRS METAR and TAF weather

Enter ICAO airport designator
Station Type Date Time Source
KCRS METAR 2019/02/20 06:53 UTC NOAA

KCRS 200653Z AUTO 32005KT 10SM OVC005 04/03 A2994 RMK AO2 SLP140 T00390033


Station Type Date Time Source
KCRS Decoded METAR 2019/02/20 06:53 UTC NOAA

CORSICANA AIRFIELD, TX, United States (KCRS) 32-01N 96-23W 133M
Feb 20, 2019 - 01:53 AM EST / 2019.02.20 0653 UTC
Wind: from the NW (320 degrees) at 6 MPH (5 KT):0
Visibility: 10 mile(s):0
Sky conditions: overcast
Temperature: 39.0 F (3.9 C)
Dew Point: 37.9 F (3.3 C)
Relative Humidity: 95%
Pressure (altimeter): 29.94 in. Hg (1013 hPa)
ob: KCRS 200653Z AUTO 32005KT 10SM OVC005 04/03 A2994 RMK AO2 SLP140 T00390033
cycle: 7

Station Type Date Time Source
KCRS TAF UTC NOAA

Error!


Example: see airport list